Time;durP1;ratioP1;P1;durP2;ratioP2;P2;SDS_P1;SDS_P2;PMS_P1;PMS_P2;Temp;Humidity;BMP_temperature;BMP_pressure;BME280_temperature;BME280_humidity;BME280_pressure;Samples;Min_cycle;Max_cycle;Signal;HPM_P1;HPM_P2
2022/02/05 00:01:08;;;;;;;3.00;1.60;;;21.20;53.90;;;;;;4973099;28;87406;-83
2022/02/05 00:03:41;;;;;;;3.92;1.70;;;21.20;53.80;;;;;;4972634;28;88897;-83
2022/02/05 00:06:07;;;;;;;1.92;1.20;;;21.20;53.70;;;;;;4971064;28;87657;-82
2022/02/05 00:08:53;;;;;;;2.38;1.38;;;21.20;53.80;;;;;;4971906;28;87267;-83
2022/02/05 00:42:11;;;;;;;2.40;1.40;;;21.10;53.60;;;;;;4971515;28;87692;-83
2022/02/05 00:44:37;;;;;;;4.85;1.88;;;21.10;53.60;;;;;;4971558;28;87566;-84
2022/02/05 00:47:03;;;;;;;3.13;1.63;;;21.00;53.40;;;;;;4969543;28;91052;-84
2022/02/05 00:49:29;;;;;;;2.55;1.60;;;21.00;53.60;;;;;;4972019;28;88494;-83
2022/02/05 00:52:03;;;;;;;3.10;1.70;;;21.00;53.40;;;;;;4970832;28;88007;-82
2022/02/05 00:54:29;;;;;;;2.92;1.85;;;21.00;53.40;;;;;;4971392;28;87644;-83
2022/02/05 00:59:29;;;;;;;2.42;1.40;;;21.00;53.40;;;;;;4970216;28;87940;-83
2022/02/05 01:01:56;;;;;;;2.17;1.60;;;21.00;53.40;;;;;;4968586;28;86979;-83
2022/02/05 01:04:21;;;;;;;2.53;1.50;;;21.00;53.40;;;;;;4970830;28;87494;-83
2022/02/05 01:06:47;;;;;;;3.30;1.77;;;21.00;53.30;;;;;;4970109;28;87693;-84
2022/02/05 01:09:20;;;;;;;3.00;1.52;;;21.00;53.30;;;;;;4970192;28;87599;-82
2022/02/05 01:11:46;;;;;;;2.38;1.40;;;21.00;53.30;;;;;;4970599;28;87934;-82
2022/02/05 01:14:15;;;;;;;2.25;1.30;;;21.00;53.30;;;;;;4971285;28;88048;-82
2022/02/05 01:16:56;;;;;;;;;;;21.00;53.40;;;;;;4971927;28;87823;-81
2022/02/05 01:22:08;;;;;;;4.18;1.70;;;21.00;53.20;;;;;;4972018;28;87469;-83
2022/02/05 01:24:35;;;;;;;2.05;1.30;;;20.90;53.10;;;;;;4971911;28;87476;-83
2022/02/05 01:27:49;;;;;;;4.00;1.48;;;20.90;53.80;;;;;;4969653;28;90652;-83
2022/02/05 01:32:36;;;;;;;2.85;1.60;;;20.90;53.00;;;;;;4971271;28;87845;-83
2022/02/05 01:35:10;;;;;;;3.45;1.60;;;20.90;52.90;;;;;;4971286;28;87467;-83
2022/02/05 02:12:05;;;;;;;1.95;1.20;;;20.80;52.80;;;;;;4970029;28;87504;-83
2022/02/05 02:30:19;;;;;;;2.55;1.13;;;20.70;52.60;;;;;;4968839;28;88844;-83
2022/02/05 02:32:50;;;;;;;2.60;1.13;;;20.70;52.60;;;;;;4970322;28;88693;-83
2022/02/05 02:35:21;;;;;;;2.58;1.38;;;20.70;52.60;;;;;;4970280;28;87816;-83
2022/02/05 02:40:24;;;;;;;1.60;1.08;;;20.70;52.60;;;;;;4970018;28;87666;-83
2022/02/05 02:42:54;;;;;;;3.05;1.50;;;20.70;52.50;;;;;;4969668;28;87076;-83
2022/02/05 02:45:20;;;;;;;2.67;1.27;;;20.70;52.50;;;;;;4970868;28;87530;-83
2022/02/05 02:47:45;;;;;;;3.22;1.45;;;20.70;52.40;;;;;;4970165;28;87008;-81
2022/02/05 02:56:25;;;;;;;2.47;1.50;;;20.70;52.60;;;;;;4969643;28;88076;-81
2022/02/05 02:58:31;;;;;;;2.33;1.50;;;20.70;52.40;;;;;;4970100;28;86989;-83
2022/02/05 03:00:59;;;;;;;2.40;1.63;;;20.60;52.40;;;;;;4970144;28;87389;-83
2022/02/05 03:03:29;;;;;;;3.22;1.48;;;20.60;52.50;;;;;;4969913;28;87984;-82
2022/02/05 03:05:54;;;;;;;;;;;20.60;52.50;;;;;;4970091;28;87631;-83
2022/02/05 03:08:20;;;;;;;2.65;1.33;;;20.60;52.40;;;;;;4970874;28;87405;-83
2022/02/05 03:10:46;;;;;;;2.78;1.50;;;20.60;52.40;;;;;;4967521;28;90369;-83
2022/02/05 03:13:12;;;;;;;2.08;1.42;;;20.60;52.30;;;;;;4969887;28;87764;-83
2022/02/05 03:15:39;;;;;;;2.72;1.20;;;20.60;52.30;;;;;;4969626;28;87202;-82
2022/02/05 03:18:11;;;;;;;1.98;1.38;;;20.60;52.20;;;;;;4968641;28;88013;-83
2022/02/05 03:20:37;;;;;;;1.92;1.33;;;20.60;52.20;;;;;;4968600;28;89004;-82
2022/02/05 03:23:03;;;;;;;2.13;1.25;;;20.60;52.20;;;;;;4969949;28;88287;-83
2022/02/05 03:25:33;;;;;;;2.13;1.35;;;20.50;52.20;;;;;;4969826;28;87210;-83
2022/02/05 03:28:00;;;;;;;1.88;1.33;;;20.60;52.30;;;;;;4970225;28;87014;-83
2022/02/05 03:30:26;;;;;;;3.03;1.63;;;20.60;52.20;;;;;;4967659;28;91235;-82
2022/02/05 03:32:52;;;;;;;1.88;1.25;;;20.60;52.30;;;;;;4969643;28;88002;-82
2022/02/05 03:35:18;;;;;;;1.80;1.30;;;20.50;52.20;;;;;;4969619;28;87083;-83
2022/02/05 03:37:44;;;;;;;3.10;1.60;;;20.60;52.20;;;;;;4969996;28;87339;-83
2022/02/05 03:40:10;;;;;;;2.25;1.35;;;20.50;52.20;;;;;;4967284;28;89446;-83
2022/02/05 03:42:43;;;;;;;2.75;1.60;;;20.50;52.10;;;;;;4968588;28;89510;-82
2022/02/05 03:45:09;;;;;;;3.15;1.60;;;20.50;52.10;;;;;;4968647;28;88445;-82
2022/02/05 03:47:36;;;;;;;2.85;1.40;;;20.50;52.00;;;;;;4969090;28;87419;-81
2022/02/05 03:50:04;;;;;;;1.52;1.08;;;20.50;52.00;;;;;;4969428;28;89356;-82
2022/02/05 03:52:30;;;;;;;2.03;1.50;;;20.50;52.00;;;;;;4969194;28;88170;-83
2022/02/05 03:54:57;;;;;;;1.48;1.10;;;20.50;51.90;;;;;;4969017;28;86987;-82
2022/02/05 03:57:22;;;;;;;2.38;1.40;;;20.50;51.90;;;;;;4968340;28;86987;-81
2022/02/05 03:59:50;;;;;;;2.58;1.33;;;20.50;51.90;;;;;;4968437;28;87594;-83
2022/02/05 04:02:15;;;;;;;2.03;1.45;;;20.50;51.90;;;;;;4970172;28;87256;-83
2022/02/05 04:04:41;;;;;;;2.53;1.52;;;20.50;51.90;;;;;;4969338;28;87622;-82
2022/02/05 04:07:07;;;;;;;3.47;1.63;;;20.40;51.80;;;;;;4967759;28;87649;-82
2022/02/05 04:09:41;;;;;;;1.80;1.38;;;20.40;51.80;;;;;;4967569;28;88900;-83
2022/02/05 04:17:36;;;;;;;2.88;1.63;;;20.40;51.80;;;;;;4968812;28;86957;-81
2022/02/05 04:20:03;;;;;;;2.97;1.63;;;20.40;51.80;;;;;;4968431;28;88655;-82
2022/02/05 04:22:28;;;;;;;2.42;1.25;;;20.50;51.70;;;;;;4968846;28;87712;-82
2022/02/05 04:24:54;;;;;;;2.08;1.40;;;20.40;51.60;;;;;;4968482;28;87893;-83
2022/02/05 04:27:20;;;;;;;2.30;1.38;;;20.40;51.60;;;;;;4968509;28;86238;-82
2022/02/05 04:29:45;;;;;;;1.70;1.35;;;20.40;51.70;;;;;;4968891;28;87531;-82
2022/02/05 04:32:13;;;;;;;2.67;1.35;;;20.40;51.70;;;;;;4968551;28;87445;-84
2022/02/05 04:34:39;;;;;;;1.85;1.10;;;20.40;51.60;;;;;;4966328;28;88799;-82
2022/02/05 04:37:05;;;;;;;2.85;1.63;;;20.40;51.60;;;;;;4970904;28;87570;-82
2022/02/05 04:39:33;;;;;;;2.97;1.42;;;20.40;51.50;;;;;;4971322;28;87745;-83
2022/02/05 04:42:12;;;;;;;2.75;1.27;;;20.40;51.50;;;;;;4969680;28;88846;-82
2022/02/05 04:50:18;;;;;;;2.92;1.75;;;20.30;51.60;;;;;;4971130;28;86954;-82
2022/02/05 05:00:46;;;;;;;2.55;1.30;;;20.30;51.50;;;;;;4971354;28;88930;-83
2022/02/05 05:08:45;;;;;;;2.15;1.30;;;20.30;51.50;;;;;;4971144;28;87073;-82
2022/02/05 05:11:42;;;;;;;2.20;1.38;;;20.30;51.50;;;;;;4971886;28;87511;-82
2022/02/05 05:21:37;;;;;;;2.88;1.58;;;20.30;51.50;;;;;;4970973;28;88262;-83
2022/02/05 05:24:02;;;;;;;2.05;1.40;;;20.30;51.50;;;;;;4971688;28;87725;-83
2022/02/05 05:26:28;;;;;;;2.85;1.38;;;20.30;51.40;;;;;;4971541;28;88305;-83
2022/02/05 05:28:53;;;;;;;2.67;1.42;;;20.30;51.50;;;;;;4971468;28;87380;-83
2022/02/05 05:31:19;;;;;;;2.30;1.40;;;20.20;51.30;;;;;;4969777;28;87641;-83
2022/02/05 05:33:45;;;;;;;2.67;1.20;;;20.30;51.20;;;;;;4970437;28;88128;-82
2022/02/05 05:36:10;;;;;;;2.13;1.30;;;20.20;51.20;;;;;;4971308;28;86919;-83
2022/02/05 05:38:36;;;;;;;2.30;1.45;;;20.20;51.20;;;;;;4969106;28;88225;-84
2022/02/05 05:41:01;;;;;;;2.25;1.30;;;20.20;51.10;;;;;;4970511;28;87619;-83
2022/02/05 05:43:54;;;;;;;2.72;1.20;;;20.20;51.20;;;;;;4971083;28;88150;-83
2022/02/05 05:46:31;;;;;;;1.65;1.30;;;20.20;51.30;;;;;;4970576;28;87652;-82
2022/02/05 05:49:09;;;;;;;1.92;1.42;;;20.20;51.10;;;;;;4969522;28;89747;-82
2022/02/05 05:51:35;;;;;;;2.27;1.20;;;20.20;51.20;;;;;;4971106;28;89205;-82
2022/02/05 05:54:01;;;;;;;2.70;1.40;;;20.20;51.10;;;;;;4969528;28;90818;-83
2022/02/05 05:56:26;;;;;;;1.58;1.30;;;20.20;51.20;;;;;;4986141;28;88618;-82
2022/02/05 05:58:52;;;;;;;1.95;1.30;;;20.20;50.90;;;;;;4970659;28;88209;-84
2022/02/05 06:01:18;;;;;;;2.17;1.23;;;20.20;51.20;;;;;;4970450;28;87531;-81
2022/02/05 06:03:43;;;;;;;2.83;1.40;;;20.20;51.10;;;;;;4970108;28;87771;-84
2022/02/05 06:06:09;;;;;;;2.08;1.25;;;20.20;51.10;;;;;;4970452;28;87813;-83
2022/02/05 06:08:34;;;;;;;2.10;1.30;;;20.20;50.90;;;;;;4971338;28;87030;-83
2022/02/05 06:11:00;;;;;;;2.30;1.40;;;20.10;51.10;;;;;;4985257;28;90542;-83
2022/02/05 06:13:27;;;;;;;2.20;1.48;;;20.10;51.10;;;;;;4969973;28;90145;-82
2022/02/05 06:15:54;;;;;;;2.80;1.80;;;20.10;51.10;;;;;;4971031;28;88509;-84
2022/02/05 06:18:28;;;;;;;3.67;1.77;;;20.10;51.10;;;;;;4966422;28;90082;-83
2022/02/05 06:20:53;;;;;;;2.80;1.42;;;20.10;51.00;;;;;;4970535;28;88093;-83
2022/02/05 06:23:19;;;;;;;1.77;1.33;;;20.10;51.00;;;;;;4970898;28;87817;-83
2022/02/05 06:25:45;;;;;;;2.15;1.30;;;20.10;51.10;;;;;;4970018;28;88339;-83
2022/02/05 06:28:12;;;;;;;2.78;1.27;;;20.10;51.20;;;;;;4969989;28;87773;-84
2022/02/05 06:30:38;;;;;;;3.67;1.52;;;20.10;51.10;;;;;;4969388;28;88913;-82
2022/02/05 06:33:03;;;;;;;2.50;1.30;;;20.10;49.80;;;;;;4971796;28;88403;-83
2022/02/05 06:35:29;;;;;;;2.40;1.60;;;20.10;50.70;;;;;;4969269;28;87467;-81
2022/02/05 06:37:55;;;;;;;1.92;1.58;;;20.10;50.90;;;;;;4969191;28;87742;-83
2022/02/05 06:40:20;;;;;;;3.38;1.55;;;20.10;51.40;;;;;;4968211;28;88615;-81
2022/02/05 06:42:46;;;;;;;3.08;1.50;;;20.10;51.00;;;;;;4969231;28;88458;-81
2022/02/05 06:45:16;;;;;;;4.40;1.50;;;20.10;51.10;;;;;;4968902;28;87881;-82
2022/02/05 06:47:42;;;;;;;;;;;20.20;51.40;;;;;;4971059;28;87377;-82
2022/02/05 06:50:07;;;;;;;2.65;1.90;;;20.30;51.70;;;;;;4969755;28;89234;-82
2022/02/05 06:52:34;;;;;;;3.28;1.88;;;20.30;51.50;;;;;;4969187;28;89818;-80
2022/02/05 06:55:00;;;;;;;2.08;1.73;;;20.40;51.90;;;;;;4969255;28;87822;-82
2022/02/05 06:57:28;;;;;;;4.70;1.77;;;20.40;52.00;;;;;;4968400;28;88502;-83
2022/02/05 07:00:01;;;;;;;3.58;2.00;;;20.50;52.00;;;;;;4968928;28;87992;-81
2022/02/05 07:02:26;;;;;;;3.75;1.70;;;20.50;51.90;;;;;;4968596;28;87648;-81
2022/02/05 07:04:52;;;;;;;3.55;1.85;;;20.50;52.00;;;;;;4969280;28;88319;-82
2022/02/05 07:07:18;;;;;;;4.32;2.08;;;20.60;51.50;;;;;;4969593;28;87380;-81
2022/02/05 07:09:43;;;;;;;3.17;1.83;;;20.60;51.70;;;;;;4970280;28;87444;-81
2022/02/05 07:12:10;;;;;;;3.38;1.90;;;20.60;51.30;;;;;;4969305;28;87812;-80
2022/02/05 07:14:44;;;;;;;5.22;2.20;;;20.60;51.20;;;;;;4970122;28;87539;-82
2022/02/05 07:17:27;;;;;;;2.40;1.70;;;20.70;50.90;;;;;;4969391;28;87369;-82
2022/02/05 07:20:03;;;;;;;2.53;1.63;;;20.70;51.50;;;;;;4968819;28;88473;-81
2022/02/05 07:22:42;;;;;;;2.55;1.67;;;20.70;50.70;;;;;;4970074;28;87952;-82
2022/02/05 07:30:20;;;;;;;3.33;1.80;;;20.70;51.20;;;;;;4968395;28;88447;-82
2022/02/05 07:32:46;;;;;;;3.15;1.67;;;20.70;51.30;;;;;;4969300;28;87796;-82
2022/02/05 07:35:12;;;;;;;3.17;1.60;;;20.70;51.40;;;;;;4969091;28;87715;-81
2022/02/05 07:37:38;;;;;;;2.85;1.80;;;20.70;51.80;;;;;;4969622;28;87524;-82
2022/02/05 07:40:04;;;;;;;2.38;1.48;;;20.70;51.80;;;;;;4968676;28;88285;-81
2022/02/05 07:42:30;;;;;;;2.80;1.65;;;20.70;51.60;;;;;;4968712;28;87513;-82
2022/02/05 07:44:55;;;;;;;3.03;1.52;;;20.70;51.50;;;;;;4968686;28;87843;-82
2022/02/05 07:47:23;;;;;;;3.33;1.75;;;20.70;51.80;;;;;;4968151;28;86839;-81
2022/02/05 07:49:51;;;;;;;5.03;2.20;;;20.70;51.70;;;;;;4966854;28;89996;-82
2022/02/05 07:52:17;;;;;;;11.50;2.75;;;20.70;50.70;;;;;;4971677;28;88362;-81
2022/02/05 07:54:42;;;;;;;7.47;2.45;;;20.70;49.50;;;;;;4970158;28;88727;-81
2022/02/05 07:57:09;;;;;;;4.85;2.22;;;20.70;50.60;;;;;;4969046;28;88719;-81
2022/02/05 07:59:34;;;;;;;3.63;1.90;;;20.70;51.20;;;;;;4965579;28;90195;-82
2022/02/05 08:02:00;;;;;;;6.50;2.00;;;20.70;51.40;;;;;;4967616;28;87465;-81
2022/02/05 08:04:26;;;;;;;14.98;3.15;;;20.70;51.60;;;;;;4967602;28;87972;-82
2022/02/05 08:06:52;;;;;;;25.85;5.45;;;20.80;50.90;;;;;;4967249;28;87729;-83
2022/02/05 08:11:50;;;;;;;20.67;4.32;;;20.80;49.40;;;;;;4971556;28;87177;-81
2022/02/05 08:14:16;;;;;;;11.25;3.42;;;20.80;50.20;;;;;;4971725;28;87468;-81
2022/02/05 08:19:08;;;;;;;17.80;3.95;;;20.80;51.20;;;;;;4970128;28;88577;-81
2022/02/05 08:21:34;;;;;;;20.38;4.63;;;20.80;51.30;;;;;;4971405;28;90607;-82
2022/02/05 08:24:00;;;;;;;27.02;6.20;;;20.80;50.50;;;;;;4971933;28;87981;-81
2022/02/05 08:26:30;;;;;;;19.15;4.90;;;20.90;49.80;;;;;;4971623;28;87827;-80
2022/02/05 08:29:05;;;;;;;13.50;3.90;;;20.90;50.80;;;;;;4972028;28;87982;-81
2022/02/05 08:31:34;;;;;;;13.50;4.63;;;20.80;51.40;;;;;;4969864;28;87969;-80
2022/02/05 08:34:00;;;;;;;16.33;4.28;;;20.80;51.60;;;;;;4972084;28;87440;-80
2022/02/05 08:36:29;;;;;;;18.95;4.88;;;20.80;51.60;;;;;;4969736;28;89147;-80
2022/02/05 08:38:55;;;;;;;22.75;5.60;;;20.80;51.20;;;;;;4969902;28;88455;-81
2022/02/05 08:41:21;;;;;;;10.75;3.28;;;20.80;50.70;;;;;;4971843;28;90098;-80
2022/02/05 08:43:47;;;;;;;20.05;4.68;;;20.90;51.80;;;;;;4972874;28;89845;-80
2022/02/05 08:46:13;;;;;;;16.17;4.53;;;20.90;51.50;;;;;;4973474;28;87042;-81
2022/02/05 08:48:38;;;;;;;18.65;4.50;;;20.90;51.50;;;;;;4965902;28;88201;-81
2022/02/05 08:51:05;;;;;;;13.30;4.15;;;20.90;51.50;;;;;;4967872;28;87654;-82
2022/02/05 08:53:31;;;;;;;13.27;3.72;;;20.90;51.60;;;;;;4970422;28;87896;-82
2022/02/05 08:55:57;;;;;;;15.65;4.57;;;20.90;51.80;;;;;;4971320;28;87302;-82
2022/02/05 08:58:23;;;;;;;20.52;4.50;;;20.90;52.20;;;;;;4968769;28;89250;-81
2022/02/05 09:00:55;;;;;;;18.20;4.75;;;20.90;51.80;;;;;;4969370;28;89256;-81
2022/02/05 09:03:32;;;;;;;15.30;4.10;;;20.90;51.50;;;;;;4968636;28;87371;-82
2022/02/05 09:05:57;;;;;;;12.02;5.00;;;20.90;51.90;;;;;;4970057;28;88245;-81
2022/02/05 09:08:36;;;;;;;17.90;4.78;;;20.90;51.40;;;;;;4967830;28;91189;-81
2022/02/05 09:11:14;;;;;;;12.30;4.40;;;20.90;51.70;;;;;;4969163;28;88811;-81
2022/02/05 09:16:13;;;;;;;14.57;4.43;;;20.90;52.40;;;;;;4932354;28;87340;-80
2022/02/05 09:18:40;;;;;;;16.23;4.68;;;20.90;52.20;;;;;;4969090;28;88744;-81
2022/02/05 09:21:06;;;;;;;19.40;4.45;;;20.90;52.40;;;;;;4969327;28;87918;-80
2022/02/05 09:23:31;;;;;;;13.25;4.60;;;20.90;52.10;;;;;;4968863;28;88048;-82
2022/02/05 09:25:59;;;;;;;18.00;4.78;;;20.90;52.00;;;;;;4969657;28;87026;-81
2022/02/05 09:28:30;;;;;;;18.25;5.00;;;20.90;52.10;;;;;;4969878;28;87666;-81
2022/02/05 09:33:35;;;;;;;14.43;4.95;;;20.90;52.30;;;;;;4970257;28;88029;-81
2022/02/05 09:36:01;;;;;;;12.85;4.88;;;20.90;52.60;;;;;;4970317;28;87805;-81
2022/02/05 09:38:27;;;;;;;14.00;4.40;;;20.90;52.60;;;;;;4967875;28;93964;-80
2022/02/05 09:40:53;;;;;;;13.75;4.63;;;20.90;52.60;;;;;;4969358;28;88182;-81
2022/02/05 09:43:28;;;;;;;13.65;5.18;;;20.90;52.70;;;;;;4969267;28;88024;-82
2022/02/05 09:45:57;;;;;;;19.55;5.70;;;20.90;50.40;;;;;;4967467;28;89684;-81
2022/02/05 09:48:24;;;;;;;18.95;5.20;;;20.90;50.20;;;;;;4966685;28;88492;-81
2022/02/05 09:50:50;;;;;;;16.77;5.20;;;20.90;50.70;;;;;;4969389;28;87776;-82
2022/02/05 09:53:20;;;;;;;17.30;5.18;;;20.90;51.50;;;;;;4970838;28;87554;-82
2022/02/05 09:55:49;;;;;;;22.52;4.82;;;20.90;51.60;;;;;;4969993;28;87558;-81
2022/02/05 09:58:16;;;;;;;17.40;5.00;;;20.90;51.70;;;;;;4969030;28;88602;-81
2022/02/05 10:01:01;;;;;;;12.02;3.90;;;20.90;51.90;;;;;;4970283;28;88169;-81
2022/02/05 10:03:31;;;;;;;12.63;4.35;;;20.90;52.20;;;;;;4972496;28;87371;-82
2022/02/05 10:06:09;;;;;;;21.40;5.20;;;20.90;50.80;;;;;;4970685;28;87432;-83
2022/02/05 10:08:36;;;;;;;36.72;9.45;;;20.90;50.00;;;;;;4968790;28;87812;-82
2022/02/05 10:11:15;;;;;;;49.90;11.98;;;20.90;50.00;;;;;;4968233;28;91017;-82
2022/02/05 10:13:42;;;;;;;60.95;12.90;;;20.90;48.70;;;;;;4969865;28;87760;-84
2022/02/05 10:16:08;;;;;;;60.38;15.30;;;20.90;50.00;;;;;;4970287;28;88403;-82
2022/02/05 10:18:39;;;;;;;49.63;13.38;;;20.90;48.30;;;;;;4969121;28;87805;-84
2022/02/05 10:21:20;;;;;;;36.97;10.52;;;20.90;48.70;;;;;;4969140;28;87780;-83
2022/02/05 10:24:06;;;;;;;37.80;10.48;;;20.90;51.20;;;;;;4968235;28;89159;-83
2022/02/05 10:26:40;;;;;;;38.28;9.85;;;21.00;51.80;;;;;;4983841;28;89368;-83
2022/02/05 10:29:16;;;;;;;36.40;10.55;;;21.00;52.40;;;;;;4967107;28;90919;-84
2022/02/05 10:31:53;;;;;;;45.72;10.27;;;21.00;52.10;;;;;;4966048;28;90330;-83
2022/02/05 10:34:19;;;;;;;36.90;9.95;;;21.00;52.60;;;;;;4968537;28;87176;-82
2022/02/05 10:36:46;;;;;;;35.58;9.27;;;21.00;52.90;;;;;;4969212;28;87385;-83
2022/02/05 10:39:28;;;;;;;29.08;8.57;;;21.10;53.70;;;;;;4967115;28;89084;-83
2022/02/05 10:45:04;;;;;;;31.73;8.10;;;21.10;53.70;;;;;;4970164;28;87582;-82
2022/02/05 10:47:59;;;;;;;33.72;7.57;;;21.10;51.70;;;;;;4967989;28;88967;-82
2022/02/05 10:50:35;;;;;;;28.48;8.23;;;21.00;50.90;;;;;;4967800;28;89124;-81
2022/02/05 10:53:06;;;;;;;30.85;8.88;;;21.10;49.20;;;;;;4984532;28;91122;-82
2022/02/05 10:58:40;;;;;;;29.27;8.68;;;21.10;51.70;;;;;;4969294;28;88246;-82
2022/02/05 11:07:10;;;;;;;33.25;8.85;;;21.00;53.80;;;;;;4969176;28;87493;-82
2022/02/05 11:09:37;;;;;;;28.38;8.15;;;21.10;54.10;;;;;;4969918;28;86794;-83
2022/02/05 11:15:26;;;;;;;28.23;7.68;;;21.10;53.50;;;;;;4970634;28;87510;-82
2022/02/05 11:18:08;;;;;;;26.25;9.05;;;21.10;53.70;;;;;;4968873;28;89594;-82
2022/02/05 11:20:34;;;;;;;18.35;7.35;;;21.10;52.90;;;;;;4969634;28;87290;-83
2022/02/05 11:23:05;;;;;;;24.83;8.45;;;21.10;53.00;;;;;;4969563;28;88741;-83
2022/02/05 11:25:41;;;;;;;25.48;7.55;;;21.10;53.40;;;;;;4969626;28;87599;-83
2022/02/05 11:28:10;;;;;;;20.23;7.53;;;21.10;52.70;;;;;;4969607;28;87674;-82
2022/02/05 11:30:36;;;;;;;27.38;7.32;;;21.10;53.10;;;;;;4968070;28;87038;-83
2022/02/05 11:33:23;;;;;;;25.48;7.55;;;21.10;53.50;;;;;;4968286;28;87543;-82
2022/02/05 11:38:31;;;;;;;52.35;13.15;;;21.10;53.60;;;;;;4969065;28;87083;-82
2022/02/05 11:40:57;;;;;;;45.90;10.63;;;21.10;52.30;;;;;;4968124;28;87273;-84
2022/02/05 11:43:34;;;;;;;30.02;9.18;;;21.10;52.80;;;;;;4966180;28;91841;-83
2022/02/05 11:46:11;;;;;;;29.42;8.95;;;21.20;53.40;;;;;;4968138;28;89094;-83
2022/02/05 11:48:55;;;;;;;21.63;7.57;;;21.10;53.30;;;;;;4969428;28;87064;-83
2022/02/05 11:51:25;;;;;;;30.45;8.43;;;21.20;53.70;;;;;;4967950;28;87050;-84
2022/02/05 11:53:57;;;;;;;26.75;7.88;;;21.20;53.50;;;;;;4969372;28;88128;-81
2022/02/05 11:56:47;;;;;;;27.63;8.32;;;21.20;53.50;;;;;;4983893;28;90698;-82
2022/02/05 11:59:13;;;;;;;22.05;7.50;;;21.20;53.50;;;;;;4968914;28;87993;-82
2022/02/05 12:01:40;;;;;;;24.58;7.95;;;21.10;52.90;;;;;;4964561;28;89919;-82
2022/02/05 12:04:18;;;;;;;23.63;8.07;;;21.20;53.20;;;;;;4968710;28;88102;-81
2022/02/05 12:06:49;;;;;;;30.15;9.20;;;21.20;53.10;;;;;;4967896;28;88320;-81
2022/02/05 12:09:39;;;;;;;33.55;8.70;;;21.20;52.30;;;;;;4966824;28;88728;-81
2022/02/05 12:12:26;;;;;;;29.33;8.23;;;21.10;52.10;;;;;;4967893;28;87784;-83
2022/02/05 12:15:17;;;;;;;23.15;7.63;;;21.10;52.30;;;;;;4967681;28;87687;-82
2022/02/05 12:21:11;;;;;;;24.23;7.63;;;21.20;52.70;;;;;;4944657;28;87522;-82
2022/02/05 12:26:08;;;;;;;28.00;8.20;;;21.20;52.70;;;;;;4967475;28;88087;-83
2022/02/05 12:28:41;;;;;;;27.42;8.23;;;21.20;52.50;;;;;;4964954;28;88451;-82
2022/02/05 12:31:21;;;;;;;22.55;7.88;;;21.10;52.60;;;;;;4966638;28;87437;-81
2022/02/05 12:33:51;;;;;;;21.17;7.57;;;21.20;51.90;;;;;;4966988;28;89811;-83
2022/02/05 12:36:38;;;;;;;22.23;7.13;;;21.20;52.50;;;;;;4981899;28;91417;-82
2022/02/05 12:39:12;;;;;;;19.05;7.25;;;21.20;53.00;;;;;;4966918;28;88682;-83
2022/02/05 12:42:13;;;;;;;24.55;7.10;;;21.20;52.30;;;;;;4962955;28;88014;-81
2022/02/05 12:44:37;;;;;;;19.50;6.80;;;21.20;51.60;;;;;;4965926;28;87331;-82
2022/02/05 12:47:16;;;;;;;19.17;6.68;;;21.20;50.40;;;;;;4967692;28;88052;-81
2022/02/05 12:52:12;;;;;;;18.17;6.28;;;21.20;50.10;;;;;;4967874;28;87479;-83
2022/02/05 12:54:47;;;;;;;20.45;6.40;;;21.20;51.00;;;;;;4914645;28;87603;-82
2022/02/05 12:57:19;;;;;;;18.65;6.65;;;21.30;51.90;;;;;;4967455;28;88197;-82
2022/02/05 12:59:52;;;;;;;28.98;8.20;;;21.30;51.60;;;;;;4971728;28;88100;-82
2022/02/05 13:02:19;;;;;;;21.73;6.80;;;21.20;51.80;;;;;;4969620;28;88558;-83
2022/02/05 13:04:55;;;;;;;21.38;6.90;;;21.20;52.00;;;;;;4969398;28;89278;-82
2022/02/05 13:07:25;;;;;;;21.77;6.22;;;21.20;51.90;;;;;;4970525;28;87385;-82
2022/02/05 13:10:01;;;;;;;20.88;7.10;;;21.20;52.10;;;;;;4970732;28;88144;-81
2022/02/05 13:12:29;;;;;;;21.67;6.78;;;21.20;52.00;;;;;;4969687;28;87839;-83
2022/02/05 13:15:03;;;;;;;16.13;6.90;;;21.20;52.00;;;;;;4971068;28;87516;-82
2022/02/05 13:38:55;;;;;;;19.23;5.78;;;21.50;51.80;;;;;;4971224;28;88092;-82
2022/02/05 13:41:57;;;;;;;20.20;6.00;;;21.60;51.50;;;;;;4985590;28;91486;-82
2022/02/05 13:44:26;;;;;;;18.83;6.28;;;21.60;51.70;;;;;;4971315;28;87696;-83
2022/02/05 13:47:06;;;;;;;16.23;6.13;;;21.60;51.20;;;;;;4971660;28;86775;-82
2022/02/05 13:49:34;;;;;;;14.82;5.60;;;21.70;51.30;;;;;;4971891;28;88131;-82
2022/02/05 13:52:13;;;;;;;18.27;5.75;;;21.70;51.10;;;;;;4970518;28;87774;-82
2022/02/05 13:54:42;;;;;;;15.55;5.68;;;21.70;50.90;;;;;;4969980;28;88341;-83
2022/02/05 13:57:13;;;;;;;17.58;5.80;;;21.70;50.90;;;;;;4969744;28;87371;-84
2022/02/05 13:59:40;;;;;;;19.05;5.70;;;21.60;51.80;;;;;;4969960;28;88198;-81
2022/02/05 14:02:13;;;;;;;15.57;6.20;;;21.60;51.70;;;;;;4968442;28;88816;-81
2022/02/05 14:04:38;;;;;;;18.25;5.90;;;21.60;52.10;;;;;;4970566;28;88495;-82
2022/02/05 14:07:04;;;;;;;11.98;5.25;;;21.60;52.20;;;;;;4970244;28;87545;-81
2022/02/05 14:09:32;;;;;;;16.02;5.68;;;21.60;52.50;;;;;;4969779;28;88151;-81
2022/02/05 14:12:20;;;;;;;18.07;5.57;;;21.60;52.30;;;;;;4969808;28;88374;-80
2022/02/05 14:15:04;;;;;;;18.65;5.43;;;21.60;52.00;;;;;;4970823;28;87368;-81
2022/02/05 14:17:30;;;;;;;21.23;5.55;;;21.70;52.50;;;;;;4968445;28;87843;-82
2022/02/05 14:20:07;;;;;;;18.15;5.13;;;21.70;52.30;;;;;;4971214;28;88629;-82
2022/02/05 14:22:36;;;;;;;16.42;5.28;;;21.70;52.80;;;;;;4973186;28;89449;-82
2022/02/05 14:25:08;;;;;;;15.27;5.45;;;21.60;52.80;;;;;;4972779;28;87375;-81
2022/02/05 14:27:43;;;;;;;12.90;4.82;;;21.60;52.70;;;;;;4973291;28;87461;-82
2022/02/05 14:30:13;;;;;;;12.75;4.82;;;21.60;52.80;;;;;;4971637;28;88126;-81
2022/02/05 14:32:47;;;;;;;;;;;21.60;53.10;;;;;;4972379;28;88116;-82
2022/02/05 14:40:58;;;;;;;17.92;5.50;;;21.70;53.70;;;;;;4963785;28;87268;-81
2022/02/05 14:43:24;;;;;;;12.45;4.43;;;21.70;53.60;;;;;;4972173;28;87808;-82
2022/02/05 14:45:51;;;;;;;12.15;4.82;;;21.70;53.30;;;;;;4973392;28;88520;-81
2022/02/05 14:48:17;;;;;;;16.67;4.68;;;21.70;53.50;;;;;;4971562;28;88758;-82
2022/02/05 14:50:42;;;;;;;14.18;4.78;;;21.70;53.40;;;;;;4972996;28;88564;-80
2022/02/05 14:53:08;;;;;;;10.25;4.18;;;21.70;53.30;;;;;;4972309;28;88100;-81
2022/02/05 14:55:34;;;;;;;14.60;5.03;;;21.70;53.50;;;;;;4972783;28;87402;-81
2022/02/05 14:58:00;;;;;;;12.95;5.18;;;21.60;53.50;;;;;;4972173;28;87997;-81
2022/02/05 15:00:26;;;;;;;11.48;3.83;;;21.60;53.20;;;;;;4970543;28;87743;-83
2022/02/05 15:02:52;;;;;;;14.20;4.40;;;21.60;54.10;;;;;;4972786;28;87807;-81
2022/02/05 15:05:18;;;;;;;16.50;4.60;;;21.70;54.40;;;;;;4971308;28;87035;-83
2022/02/05 15:07:44;;;;;;;13.95;3.78;;;21.70;54.60;;;;;;4973134;28;87692;-81
2022/02/05 15:10:14;;;;;;;20.08;5.05;;;21.70;54.30;;;;;;4970821;28;88967;-81
2022/02/05 15:12:41;;;;;;;11.35;4.30;;;21.60;55.20;;;;;;4968593;28;90627;-81
2022/02/05 15:15:14;;;;;;;17.30;4.88;;;21.60;55.10;;;;;;4970329;28;87427;-82
2022/02/05 15:17:42;;;;;;;13.15;4.82;;;21.60;53.70;;;;;;4967767;28;91149;-83
2022/02/05 15:20:10;;;;;;;14.87;4.33;;;21.60;55.50;;;;;;4966726;28;87990;-82
2022/02/05 15:22:35;;;;;;;13.65;4.35;;;21.70;54.60;;;;;;4966761;28;88262;-82
2022/02/05 15:25:01;;;;;;;15.27;4.55;;;21.70;55.30;;;;;;4967651;28;87918;-80
2022/02/05 15:27:27;;;;;;;13.43;4.05;;;21.70;55.00;;;;;;4967543;28;86849;-80
2022/02/05 15:29:52;;;;;;;15.52;4.20;;;21.70;55.10;;;;;;4966336;28;88097;-81
2022/02/05 15:32:18;;;;;;;22.80;5.05;;;21.70;55.00;;;;;;4966253;28;87995;-81
2022/02/05 15:34:44;;;;;;;19.50;4.75;;;21.80;55.20;;;;;;4967089;28;88457;-81
2022/02/05 15:37:17;;;;;;;22.52;4.35;;;21.80;54.80;;;;;;4966588;28;87897;-82
2022/02/05 15:45:05;;;;;;;28.98;5.95;;;21.80;53.80;;;;;;4967491;28;87722;-80
2022/02/05 15:47:31;;;;;;;26.85;5.95;;;21.80;54.00;;;;;;4967442;28;87214;-81
2022/02/05 15:49:57;;;;;;;20.00;5.90;;;21.80;54.30;;;;;;4966464;28;87780;-81
2022/02/05 15:52:24;;;;;;;23.85;5.95;;;21.80;54.60;;;;;;4966915;28;87898;-80
2022/02/05 15:54:51;;;;;;;24.35;5.40;;;21.80;54.20;;;;;;4967798;28;87662;-81
2022/02/05 16:02:08;;;;;;;25.15;5.55;;;21.70;55.00;;;;;;4966551;28;88256;-82
2022/02/05 16:04:34;;;;;;;24.27;5.05;;;21.80;54.50;;;;;;4966947;28;87799;-82
2022/02/05 16:07:00;;;;;;;19.00;4.93;;;21.70;54.40;;;;;;4966529;28;88189;-83
2022/02/05 16:09:25;;;;;;;24.65;5.00;;;21.80;54.50;;;;;;4966298;28;87789;-81
2022/02/05 16:11:51;;;;;;;23.45;5.28;;;21.70;55.50;;;;;;4966614;28;88085;-82
2022/02/05 16:14:17;;;;;;;14.40;4.80;;;21.70;55.00;;;;;;4966123;28;87282;-80
2022/02/05 16:16:43;;;;;;;16.42;4.45;;;21.70;54.90;;;;;;4967789;28;87305;-81
2022/02/05 16:19:10;;;;;;;15.90;4.65;;;21.70;55.40;;;;;;4964376;28;90975;-81
2022/02/05 16:21:35;;;;;;;18.55;4.72;;;21.80;56.40;;;;;;4966226;28;87615;-81
2022/02/05 16:24:01;;;;;;;20.27;4.82;;;21.80;55.50;;;;;;4964380;28;88606;-81